Time;durP1;ratioP1;P1;durP2;ratioP2;P2;SDS_P1;SDS_P2;PMS_P1;PMS_P2;Temp;Humidity;BMP_temperature;BMP_pressure;BME280_temperature;BME280_humidity;BME280_pressure;Samples;Min_cycle;Max_cycle;Signal;HPM_P1;HPM_P2
2023/07/05 00:01:23;;;;;;;19.17;17.08;;;;;;;22.06;96.92;97536.00;10328499;28;20080;-50
2023/07/05 00:06:22;;;;;;;22.92;17.63;;;;;;;22.07;97.32;97539.47;10327596;28;20053;-48
2023/07/05 00:11:21;;;;;;;21.55;17.00;;;;;;;21.99;97.44;97549.56;10328218;28;20535;-49
2023/07/05 00:16:21;;;;;;;22.55;17.10;;;;;;;21.75;97.76;97515.50;10325880;28;20068;-48
2023/07/05 00:21:20;;;;;;;19.42;16.38;;;;;;;22.04;97.57;97555.47;10323829;28;20121;-48
2023/07/05 00:26:19;;;;;;;20.92;16.25;;;;;;;22.03;97.81;97551.97;10324605;28;20037;-48
2023/07/05 00:31:18;;;;;;;20.92;16.92;;;;;;;21.47;100.00;97506.28;10324187;28;20706;-50
2023/07/05 00:36:17;;;;;;;19.13;15.98;;;;;;;21.60;99.64;97547.97;10323281;28;20037;-48
2023/07/05 00:41:17;;;;;;;23.70;17.67;;;;;;;21.64;98.81;97531.00;10323750;28;20424;-48
2023/07/05 00:46:21;;;;;;;21.58;16.95;;;;;;;21.50;99.99;97532.56;10323545;28;20061;-50
2023/07/05 00:51:26;;;;;;;24.33;18.73;;;;;;;21.39;100.00;97529.59;10323455;28;20108;-48
2023/07/05 00:56:30;;;;;;;25.75;19.38;;;;;;;21.23;100.00;97528.59;10324225;28;20113;-50
2023/07/05 01:01:30;;;;;;;23.67;19.35;;;;;;;21.24;100.00;97528.53;10323634;28;20072;-48
2023/07/05 01:06:29;;;;;;;23.25;17.60;;;;;;;20.98;100.00;97515.66;10322805;28;20057;-49
2023/07/05 01:11:54;;;;;;;21.38;15.38;;;;;;;20.38;100.00;97500.78;10323882;28;20049;-50
2023/07/05 01:17:07;;;;;;;21.50;16.73;;;;;;;20.58;100.00;97518.34;10323370;28;20121;-51
2023/07/05 01:22:23;;;;;;;21.75;17.33;;;;;;;20.62;100.00;97527.84;10322798;28;20503;-49
2023/07/05 01:27:44;;;;;;;21.38;16.55;;;;;;;20.53;100.00;97522.97;10323521;28;20075;-51
2023/07/05 01:32:43;;;;;;;21.27;17.10;;;;;;;20.58;100.00;97521.00;10322993;28;20068;-48
2023/07/05 01:37:44;;;;;;;26.83;17.38;;;;;;;20.38;100.00;97481.47;10322419;28;20104;-51
2023/07/05 01:42:46;;;;;;;21.20;17.10;;;;;;;20.53;100.00;97506.31;10322289;28;20064;-51
2023/07/05 01:47:45;;;;;;;24.23;17.70;;;;;;;20.59;99.71;97516.59;10322566;28;20049;-48
2023/07/05 01:52:53;;;;;;;22.25;18.55;;;;;;;20.55;99.56;97515.88;10329046;28;20065;-51
2023/07/05 01:58:03;;;;;;;23.80;18.37;;;;;;;20.54;99.50;97519.44;10329445;28;20069;-49
2023/07/05 02:03:05;;;;;;;24.20;17.73;;;;;;;20.53;99.41;97511.59;10329611;28;20479;-49
2023/07/05 02:08:05;;;;;;;23.50;17.95;;;;;;;20.49;99.29;97501.19;10328556;28;20116;-51
2023/07/05 02:13:08;;;;;;;26.65;20.52;;;;;;;20.42;99.24;97494.50;10328963;28;20068;-51
2023/07/05 02:18:07;;;;;;;26.23;19.70;;;;;;;20.46;99.51;97516.28;10328981;28;20061;-51
2023/07/05 02:23:06;;;;;;;25.98;19.70;;;;;;;20.42;99.74;97510.31;10328036;28;20080;-50
2023/07/05 02:28:07;;;;;;;31.17;21.48;;;;;;;20.16;99.84;97466.59;10328333;28;20031;-51
2023/07/05 02:33:07;;;;;;;29.70;22.00;;;;;;;20.38;99.79;97498.16;10328331;28;20076;-51
2023/07/05 02:38:06;;;;;;;32.80;21.83;;;;;;;20.33;99.76;97484.31;10327683;28;20108;-50
2023/07/05 02:43:05;;;;;;;31.60;22.60;;;;;;;20.39;99.77;97501.63;10326201;28;20176;-51
2023/07/05 02:48:04;;;;;;;25.88;20.85;;;;;;;20.34;100.00;97506.25;10327754;28;20029;-51
2023/07/05 02:53:03;;;;;;;28.40;20.70;;;;;;;20.32;100.00;97508.94;10326988;28;20120;-49
2023/07/05 02:58:02;;;;;;;27.38;18.60;;;;;;;20.15;100.00;97520.22;10327211;28;20040;-48
2023/07/05 03:03:02;;;;;;;26.10;18.98;;;;;;;19.89;100.00;97517.88;10326703;28;20044;-48
2023/07/05 03:08:01;;;;;;;28.17;20.17;;;;;;;19.95;100.00;97512.31;10326606;28;20056;-49
2023/07/05 03:13:00;;;;;;;28.95;21.10;;;;;;;20.01;100.00;97514.72;10326725;28;20068;-50
2023/07/05 03:17:59;;;;;;;32.15;22.15;;;;;;;20.06;100.00;97510.09;10326514;28;20036;-49
2023/07/05 03:22:58;;;;;;;28.73;21.40;;;;;;;20.10;100.00;97506.41;10326223;28;20124;-51
2023/07/05 03:27:56;;;;;;;26.50;19.98;;;;;;;20.05;100.00;97516.28;10325736;28;20034;-49
2023/07/05 03:32:55;;;;;;;25.02;19.13;;;;;;;20.03;100.00;97523.41;10326256;28;20503;-50
2023/07/05 03:37:54;;;;;;;23.15;18.52;;;;;;;20.10;100.00;97513.47;10325539;28;20457;-48
2023/07/05 03:42:53;;;;;;;22.95;16.83;;;;;;;20.11;99.35;97515.16;10325458;28;20108;-49
2023/07/05 03:47:52;;;;;;;22.42;17.88;;;;;;;20.13;99.23;97508.91;10325531;28;20441;-50
2023/07/05 03:52:51;;;;;;;22.85;16.95;;;;;;;20.23;98.74;97504.94;10325330;28;20503;-50
2023/07/05 03:57:50;;;;;;;22.35;17.00;;;;;;;20.30;98.22;97505.53;10324481;28;20486;-50
2023/07/05 04:02:49;;;;;;;25.60;16.17;;;;;;;20.21;98.23;97506.81;10324922;28;20597;-48
2023/07/05 04:07:48;;;;;;;23.85;15.80;;;;;;;20.26;97.99;97504.81;10322807;28;20037;-51
2023/07/05 04:12:48;;;;;;;19.67;15.25;;;;;;;20.29;97.89;97504.66;10324017;28;20034;-52
2023/07/05 04:17:47;;;;;;;19.38;15.30;;;;;;;20.25;98.24;97508.34;10326309;28;20551;-52
2023/07/05 04:22:46;;;;;;;21.52;15.65;;;;;;;20.28;98.49;97510.88;10327787;28;20566;-50
2023/07/05 04:27:45;;;;;;;18.50;14.30;;;;;;;20.20;98.13;97512.97;10327058;28;20021;-52
2023/07/05 04:32:44;;;;;;;21.48;14.85;;;;;;;20.24;98.07;97506.66;10327436;28;20561;-52
2023/07/05 04:37:43;;;;;;;18.02;15.52;;;;;;;20.45;97.93;97507.53;10326115;28;20523;-50
2023/07/05 04:42:41;;;;;;;23.02;16.75;;;;;;;20.68;97.96;97513.50;10326057;28;20569;-48
2023/07/05 04:47:40;;;;;;;24.13;16.75;;;;;;;20.92;96.88;97527.38;10327079;28;20157;-51
2023/07/05 04:52:39;;;;;;;22.98;17.20;;;;;;;21.08;96.18;97530.16;10324599;28;20072;-48
2023/07/05 04:57:38;;;;;;;27.40;17.13;;;;;;;21.17;95.85;97524.41;10326802;28;20124;-51
2023/07/05 05:02:38;;;;;;;20.50;16.98;;;;;;;21.18;96.12;97499.75;10327630;28;20025;-51
2023/07/05 05:07:37;;;;;;;17.83;15.38;;;;;;;21.46;95.01;97528.34;10326527;28;20068;-51
2023/07/05 05:12:36;;;;;;;17.40;14.98;;;;;;;21.52;93.56;97538.63;10326994;28;20116;-52
2023/07/05 05:17:35;;;;;;;17.75;15.35;;;;;;;21.63;93.17;97534.59;10323119;28;20109;-51
2023/07/05 05:22:34;;;;;;;19.38;15.20;;;;;;;21.74;92.97;97538.41;10322941;28;20133;-49
2023/07/05 05:27:33;;;;;;;18.95;15.48;;;;;;;21.46;91.88;97504.59;10329134;28;20112;-48
2023/07/05 05:32:33;;;;;;;17.98;15.00;;;;;;;21.69;91.74;97531.66;10331213;28;20037;-49
2023/07/05 05:37:32;;;;;;;17.40;14.40;;;;;;;21.92;90.75;97539.28;10328751;28;20140;-51
2023/07/05 05:42:31;;;;;;;15.55;12.63;;;;;;;22.21;89.64;97536.97;10323508;28;20105;-51
2023/07/05 05:47:30;;;;;;;18.38;13.52;;;;;;;22.52;89.04;97543.31;10332436;28;20842;-52
2023/07/05 05:52:30;;;;;;;14.88;12.85;;;;;;;22.67;86.49;97537.22;10329547;28;20424;-52
2023/07/05 05:57:29;;;;;;;15.77;12.38;;;;;;;22.90;85.88;97541.28;10332195;28;20076;-50
2023/07/05 06:02:28;;;;;;;18.05;14.48;;;;;;;23.26;85.58;97544.66;10332852;28;20065;-50
2023/07/05 06:07:27;;;;;;;16.80;13.50;;;;;;;23.40;83.24;97516.47;10332567;28;20032;-50
2023/07/05 06:12:26;;;;;;;17.65;13.02;;;;;;;23.78;82.61;97531.97;10333005;28;20070;-52
2023/07/05 06:17:26;;;;;;;15.98;12.75;;;;;;;24.08;79.61;97533.78;10332541;28;20033;-49
2023/07/05 06:22:26;;;;;;;16.75;12.48;;;;;;;24.31;77.48;97527.13;10332648;28;20136;-50
2023/07/05 06:27:25;;;;;;;15.43;12.10;;;;;;;24.60;77.27;97512.06;10331798;28;20817;-51
2023/07/05 06:32:24;;;;;;;17.58;12.48;;;;;;;24.88;75.21;97524.50;10331797;28;20607;-49
2023/07/05 06:37:23;;;;;;;14.57;11.65;;;;;;;25.10;73.10;97526.66;10328443;28;20109;-48
2023/07/05 06:42:21;;;;;;;17.60;12.90;;;;;;;25.08;72.76;97530.34;10331785;28;20116;-51
2023/07/05 06:47:20;;;;;;;14.98;12.02;;;;;;;25.00;71.72;97522.88;10326033;28;20033;-49
2023/07/05 06:52:19;;;;;;;14.77;11.85;;;;;;;25.21;71.07;97515.34;10330118;28;20048;-51
2023/07/05 06:57:19;;;;;;;18.40;12.13;;;;;;;25.30;68.50;97496.19;10328727;28;20033;-47
2023/07/05 07:02:18;;;;;;;14.30;11.52;;;;;;;25.46;69.12;97519.09;10329424;28;20063;-48
2023/07/05 07:07:17;;;;;;;12.88;10.88;;;;;;;25.66;67.74;97516.00;10329628;28;20037;-51
2023/07/05 07:12:16;;;;;;;16.10;9.15;;;;;;;25.65;65.00;97514.31;10331389;28;20127;-51
2023/07/05 07:17:15;;;;;;;16.77;10.63;;;;;;;25.71;64.81;97508.59;10329531;28;20551;-51
2023/07/05 07:22:15;;;;;;;15.30;9.45;;;;;;;25.88;64.42;97507.47;10327233;28;20076;-50
2023/07/05 07:27:15;;;;;;;12.98;10.05;;;;;;;25.92;64.65;97506.28;10323567;28;20615;-48
2023/07/05 07:32:14;;;;;;;12.00;9.48;;;;;;;26.16;63.30;97503.78;10327513;28;20495;-49
2023/07/05 07:37:13;;;;;;;13.30;9.25;;;;;;;26.50;63.46;97501.47;10329022;28;20044;-50
2023/07/05 07:42:12;;;;;;;13.02;8.18;;;;;;;26.76;60.50;97501.44;10327885;28;20535;-49
2023/07/05 07:47:11;;;;;;;12.65;8.85;;;;;;;26.77;58.24;97497.84;10326322;28;20112;-51
2023/07/05 07:52:11;;;;;;;10.63;7.80;;;;;;;26.89;55.28;97497.00;10324857;28;20134;-50
2023/07/05 07:57:10;;;;;;;10.65;7.07;;;;;;;26.84;53.03;97483.16;10325194;28;20136;-50
2023/07/05 08:02:14;;;;;;;11.23;7.57;;;;;;;27.10;53.16;97499.94;10326360;28;20041;-51
2023/07/05 08:07:14;;;;;;;13.40;8.48;;;;;;;27.31;56.09;97496.66;10327471;28;20504;-50
2023/07/05 08:12:14;;;;;;;11.35;8.70;;;;;;;27.51;58.56;97489.88;10328632;28;20075;-49
2023/07/05 08:17:13;;;;;;;12.10;8.85;;;;;;;27.82;59.45;97491.97;10326763;28;20838;-50
2023/07/05 08:22:12;;;;;;;12.98;8.88;;;;;;;27.88;57.64;97495.13;10327313;28;21590;-50
2023/07/05 08:27:11;;;;;;;10.68;8.52;;;;;;;27.76;57.14;97487.09;10327938;28;20463;-51
2023/07/05 08:32:10;;;;;;;9.70;8.48;;;;;;;27.87;56.54;97491.63;10326830;28;20120;-50
2023/07/05 08:37:10;;;;;;;13.98;8.70;;;;;;;27.93;55.49;97492.97;10328100;28;20124;-50
2023/07/05 08:42:15;;;;;;;11.57;8.13;;;;;;;28.06;54.71;97483.06;10327430;28;20084;-49
2023/07/05 08:47:20;;;;;;;13.98;7.82;;;;;;;28.03;53.69;97488.63;10326813;28;20068;-48
2023/07/05 08:52:26;;;;;;;10.65;7.75;;;;;;;28.14;54.12;97486.00;10323981;28;20072;-51
2023/07/05 08:57:33;;;;;;;10.35;8.00;;;;;;;28.24;55.64;97492.34;10321229;28;20161;-50
2023/07/05 09:02:32;;;;;;;10.27;7.50;;;;;;;28.40;54.76;97484.00;10328418;28;20088;-52
2023/07/05 09:07:45;;;;;;;10.02;7.50;;;;;;;28.30;52.85;97484.84;10329927;28;20436;-51
2023/07/05 09:13:11;;;;;;;10.20;7.53;;;;;;;28.37;52.63;97476.22;10331845;28;20108;-51
2023/07/05 09:18:32;;;;;;;10.70;7.38;;;;;;;28.28;53.37;97470.75;10329590;28;20557;-50
2023/07/05 09:23:46;;;;;;;9.98;7.60;;;;;;;28.29;52.54;97468.00;10328528;28;20133;-51
2023/07/05 09:28:52;;;;;;;8.05;6.93;;;;;;;28.02;54.19;97471.75;10330980;28;20100;-51
2023/07/05 09:34:18;;;;;;;11.05;7.82;;;;;;;28.48;54.71;97471.84;10331170;28;20360;-49
2023/07/05 09:39:35;;;;;;;8.25;7.35;;;;;;;28.61;52.88;97457.44;10329995;28;20458;-48
2023/07/05 09:44:34;;;;;;;9.60;7.55;;;;;;;28.28;54.15;97434.25;10329827;28;20725;-49
2023/07/05 09:49:33;;;;;;;10.07;8.35;;;;;;;28.64;54.62;97438.50;10328401;28;20120;-51
2023/07/05 09:54:32;;;;;;;11.07;8.55;;;;;;;28.73;53.89;97433.44;10332168;28;20068;-52
2023/07/05 09:59:33;;;;;;;9.25;7.65;;;;;;;28.90;53.28;97440.94;10329873;28;20116;-52
2023/07/05 10:04:32;;;;;;;10.10;8.02;;;;;;;29.14;52.01;97439.94;10322044;28;20112;-51
2023/07/05 10:09:31;;;;;;;12.77;8.40;;;;;;;29.08;51.58;97434.09;10327655;28;20080;-52
2023/07/05 10:14:34;;;;;;;11.52;7.57;;;;;;;29.32;50.94;97437.56;10328358;28;20049;-52
2023/07/05 10:19:40;;;;;;;11.68;8.68;;;;;;;29.34;50.99;97441.81;10328595;28;20120;-52
2023/07/05 10:24:45;;;;;;;13.02;8.00;;;;;;;29.61;50.23;97440.53;10328312;28;20698;-52
2023/07/05 10:29:47;;;;;;;9.20;8.13;;;;;;;29.55;49.85;97431.16;10322459;28;20139;-52
2023/07/05 10:34:50;;;;;;;10.15;8.80;;;;;;;29.48;50.71;97430.84;10327000;28;20096;-51
2023/07/05 10:39:49;;;;;;;12.75;8.82;;;;;;;29.67;51.23;97419.47;10328092;28;20125;-51
2023/07/05 10:44:48;;;;;;;10.15;8.50;;;;;;;29.42;51.51;97377.88;10327819;28;20044;-52
2023/07/05 10:49:52;;;;;;;10.18;7.95;;;;;;;29.54;50.49;97401.91;10327428;28;20116;-52
2023/07/05 10:55:02;;;;;;;12.65;8.95;;;;;;;29.75;50.09;97416.13;10328291;28;20540;-50
2023/07/05 11:00:21;;;;;;;9.65;8.65;;;;;;;29.69;50.84;97433.53;10326768;28;20529;-49
2023/07/05 11:05:28;;;;;;;11.13;7.93;;;;;;;29.53;50.14;97465.19;10326763;28;20504;-49
2023/07/05 11:10:29;;;;;;;18.00;9.10;;;;;;;29.23;50.17;97442.69;10327713;28;20117;-47
2023/07/05 11:15:28;;;;;;;11.90;8.40;;;;;;;29.11;50.47;97416.09;10326194;28;20065;-49
2023/07/05 11:20:33;;;;;;;11.02;9.48;;;;;;;29.32;50.87;97443.78;10325223;28;20129;-50
2023/07/05 11:25:54;;;;;;;21.23;12.73;;;;;;;29.43;50.96;97449.06;10326840;28;20080;-51
2023/07/05 11:30:55;;;;;;;16.65;11.38;;;;;;;29.21;51.34;97449.13;10320155;28;20085;-49
2023/07/05 11:35:57;;;;;;;13.05;11.68;;;;;;;28.98;51.33;97432.31;10325348;28;20757;-51
2023/07/05 11:41:00;;;;;;;12.73;11.07;;;;;;;28.37;52.48;97438.88;10325758;28;20532;-49
2023/07/05 11:46:00;;;;;;;14.02;12.20;;;;;;;28.13;53.89;97414.97;10325044;28;20077;-50
2023/07/05 11:50:59;;;;;;;14.85;10.77;;;;;;;27.92;54.89;97444.13;10325485;28;20137;-49
2023/07/05 11:56:00;;;;;;;15.88;10.77;;;;;;;27.89;55.42;97475.47;10323412;28;20124;-48
2023/07/05 12:01:05;;;;;;;14.93;11.48;;;;;;;27.77;56.43;97467.44;10325210;28;20474;-52
2023/07/05 12:06:25;;;;;;;12.88;10.98;;;;;;;27.65;56.72;97463.03;10324069;28;20104;-51
2023/07/05 12:11:37;;;;;;;12.75;11.13;;;;;;;27.59;58.09;97468.84;10325103;28;20060;-50
2023/07/05 12:16:37;;;;;;;16.25;11.70;;;;;;;27.56;60.11;97474.41;10324727;28;20539;-50
2023/07/05 12:21:36;;;;;;;13.68;11.18;;;;;;;27.54;61.30;97476.31;10324326;28;20495;-51
2023/07/05 12:26:36;;;;;;;15.50;12.88;;;;;;;27.47;62.68;97475.94;10323569;28;20069;-49
2023/07/05 12:31:35;;;;;;;13.45;11.57;;;;;;;27.34;64.11;97462.63;10324524;28;20084;-50
2023/07/05 12:36:41;;;;;;;15.55;12.98;;;;;;;27.12;65.22;97451.84;10322164;28;20041;-51
2023/07/05 12:41:40;;;;;;;15.63;12.02;;;;;;;27.08;66.34;97443.25;10322808;28;20132;-53
2023/07/05 12:46:39;;;;;;;15.45;11.63;;;;;;;27.09;66.65;97433.44;10324367;28;20088;-49
2023/07/05 12:51:53;;;;;;;15.65;12.35;;;;;;;27.03;68.01;97424.09;10324383;28;20037;-51
2023/07/05 12:56:56;;;;;;;14.35;11.57;;;;;;;26.99;67.86;97418.13;10323226;28;20073;-50
2023/07/05 13:01:55;;;;;;;16.88;11.07;;;;;;;27.06;67.46;97417.69;10324086;28;20064;-52
2023/07/05 13:06:56;;;;;;;13.00;10.05;;;;;;;27.15;66.35;97415.19;10323429;28;20072;-51
2023/07/05 13:11:59;;;;;;;13.00;10.50;;;;;;;27.36;65.71;97406.56;10322094;28;20083;-51
2023/07/05 13:17:23;;;;;;;14.98;11.23;;;;;;;27.71;64.59;97417.28;10322882;28;20072;-49
2023/07/05 13:22:27;;;;;;;16.55;12.38;;;;;;;27.93;63.98;97396.94;10323180;28;20072;-49
2023/07/05 13:27:30;;;;;;;13.13;11.65;;;;;;;28.27;63.31;97403.22;10322712;28;20517;-50
2023/07/05 13:32:37;;;;;;;17.27;13.45;;;;;;;28.32;63.45;97386.84;10323720;28;20091;-52
2023/07/05 13:37:36;;;;;;;16.13;12.40;;;;;;;28.05;64.63;97366.66;10322794;28;20076;-51
2023/07/05 13:42:37;;;;;;;19.52;13.13;;;;;;;28.19;63.82;97350.44;10322861;28;20555;-50
2023/07/05 13:47:36;;;;;;;15.18;12.63;;;;;;;28.47;63.05;97345.56;10328997;28;20067;-51
2023/07/05 13:52:35;;;;;;;16.15;12.55;;;;;;;28.74;62.82;97310.47;10330116;28;20129;-50
2023/07/05 13:57:35;;;;;;;16.13;12.00;;;;;;;29.33;61.47;97325.19;10329936;28;20481;-53
2023/07/05 14:02:34;;;;;;;16.55;11.68;;;;;;;29.63;58.56;97348.50;10329921;28;20488;-52
2023/07/05 14:07:33;;;;;;;15.98;12.48;;;;;;;29.88;58.65;97362.44;10329407;28;20500;-53
2023/07/05 14:12:32;;;;;;;15.38;11.75;;;;;;;30.05;57.31;97366.38;10329529;28;20556;-49
2023/07/05 14:17:32;;;;;;;15.98;10.70;;;;;;;29.91;55.32;97383.63;10328568;28;21529;-51
2023/07/05 14:22:31;;;;;;;14.05;11.38;;;;;;;29.51;54.28;97400.34;10326939;28;20222;-51
2023/07/05 14:27:31;;;;;;;12.50;11.18;;;;;;;29.14;56.30;97406.03;10328143;28;20116;-49
2023/07/05 14:32:29;;;;;;;16.55;11.48;;;;;;;28.39;59.82;97409.41;10328411;28;20573;-51
2023/07/05 14:37:29;;;;;;;14.23;11.95;;;;;;;28.09;61.69;97397.50;10328669;28;20045;-51
2023/07/05 14:42:28;;;;;;;15.00;11.18;;;;;;;28.30;61.61;97383.44;10327612;28;20068;-51
2023/07/05 14:47:27;;;;;;;14.25;12.35;;;;;;;28.58;61.32;97361.56;10327513;28;20043;-51
2023/07/05 14:52:26;;;;;;;13.27;11.52;;;;;;;29.23;60.48;97356.34;10328189;28;20037;-52
2023/07/05 14:57:25;;;;;;;12.48;11.20;;;;;;;29.75;60.35;97351.94;10326865;28;20045;-52
2023/07/05 15:02:23;;;;;;;15.73;11.63;;;;;;;29.94;57.91;97342.38;10327675;28;20112;-50
2023/07/05 15:07:23;;;;;;;13.82;11.57;;;;;;;29.79;57.23;97358.72;10327378;28;20021;-49
2023/07/05 15:12:24;;;;;;;13.52;12.07;;;;;;;29.83;56.88;97359.28;10326183;28;20073;-50
2023/07/05 15:17:23;;;;;;;13.50;12.20;;;;;;;29.95;56.35;97341.38;10327421;28;20077;-50
2023/07/05 15:22:22;;;;;;;16.13;11.98;;;;;;;30.05;54.93;97348.47;10327015;28;20056;-49
2023/07/05 15:27:21;;;;;;;14.57;12.10;;;;;;;29.61;54.47;97355.78;10326017;28;20064;-51
2023/07/05 15:32:20;;;;;;;14.63;12.25;;;;;;;29.48;53.16;97339.97;10324644;28;20037;-48
2023/07/05 15:37:19;;;;;;;14.52;11.38;;;;;;;29.49;53.92;97335.44;10326023;28;20411;-49
2023/07/05 15:42:18;;;;;;;15.90;11.93;;;;;;;29.68;54.11;97340.06;10326315;28;20124;-51
2023/07/05 15:47:19;;;;;;;15.27;12.90;;;;;;;29.55;53.81;97344.75;10325228;28;20129;-51
2023/07/05 15:52:18;;;;;;;13.70;11.98;;;;;;;29.45;54.24;97340.19;10326091;28;20073;-52
2023/07/05 15:57:17;;;;;;;14.80;12.75;;;;;;;29.49;55.48;97343.47;10325781;28;20523;-51
2023/07/05 16:02:16;;;;;;;15.25;12.75;;;;;;;29.59;56.63;97335.50;10325842;28;20500;-50
2023/07/05 16:07:15;;;;;;;13.82;11.60;;;;;;;29.56;55.65;97322.41;10324025;28;20130;-50
2023/07/05 16:12:14;;;;;;;17.70;12.43;;;;;;;29.67;55.90;97333.00;10324696;28;20115;-50
2023/07/05 16:17:13;;;;;;;14.52;11.63;;;;;;;29.56;56.18;97328.59;10324248;28;20045;-53
2023/07/05 16:22:12;;;;;;;14.65;11.57;;;;;;;29.47;56.93;97338.25;10324821;28;20047;-50
2023/07/05 16:27:11;;;;;;;14.65;11.90;;;;;;;29.34;56.87;97334.06;10322790;28;20065;-52
2023/07/05 16:32:10;;;;;;;14.50;11.95;;;;;;;29.24;54.49;97336.63;10324132;28;20056;-48
2023/07/05 16:37:09;;;;;;;13.05;11.65;;;;;;;28.95;54.81;97312.38;10324193;28;20072;-48
2023/07/05 16:42:08;;;;;;;12.35;11.00;;;;;;;29.04;55.97;97341.81;10323724;28;20156;-50
2023/07/05 16:47:09;;;;;;;12.43;10.52;;;;;;;28.89;55.59;97343.09;10323352;28;20040;-48
2023/07/05 16:52:09;;;;;;;12.35;9.43;;;;;;;28.76;55.18;97337.03;10323377;28;20080;-51
2023/07/05 16:57:08;;;;;;;10.48;9.35;;;;;;;28.64;54.50;97328.19;10324009;28;20084;-51
2023/07/05 17:02:09;;;;;;;12.52;9.35;;;;;;;28.47;54.05;97316.22;10323215;28;20032;-51
2023/07/05 17:07:07;;;;;;;10.70;9.20;;;;;;;28.41;53.32;97306.03;10323268;28;20128;-50
2023/07/05 17:12:07;;;;;;;9.90;8.70;;;;;;;28.27;53.35;97287.59;10324149;28;20021;-51
2023/07/05 17:17:06;;;;;;;11.85;8.13;;;;;;;28.02;52.54;97278.88;10322710;28;20065;-51
2023/07/05 17:22:05;;;;;;;9.60;8.18;;;;;;;27.73;51.98;97268.72;10329789;28;20048;-48
2023/07/05 17:27:05;;;;;;;10.05;7.57;;;;;;;27.54;52.42;97282.63;10331441;28;20127;-50
2023/07/05 17:32:04;;;;;;;9.30;7.75;;;;;;;27.31;51.69;97294.19;10331417;28;20108;-51
2023/07/05 17:37:06;;;;;;;11.27;7.63;;;;;;;27.15;52.43;97307.81;10331162;28;20544;-49
2023/07/05 17:42:07;;;;;;;10.20;7.57;;;;;;;26.86;52.58;97315.31;10330326;28;20116;-51
2023/07/05 17:47:06;;;;;;;8.60;7.70;;;;;;;26.58;52.68;97339.47;10329107;28;20129;-51
2023/07/05 17:52:06;;;;;;;11.57;8.05;;;;;;;26.39;53.27;97341.72;10329672;28;20418;-51
2023/07/05 17:57:05;;;;;;;8.20;6.95;;;;;;;26.32;53.55;97349.31;10329926;28;20061;-50
2023/07/05 18:02:05;;;;;;;9.68;7.50;;;;;;;26.20;54.26;97359.97;10329706;28;20117;-51
2023/07/05 18:07:04;;;;;;;10.02;7.32;;;;;;;26.02;54.03;97373.59;10329574;28;20471;-49
2023/07/05 18:12:04;;;;;;;9.75;8.07;;;;;;;25.91;54.41;97392.09;10329458;28;20133;-49
2023/07/05 18:17:03;;;;;;;10.65;8.30;;;;;;;25.74;54.83;97390.59;10329985;28;20060;-48
2023/07/05 18:22:02;;;;;;;10.65;8.15;;;;;;;25.63;55.19;97391.31;10328635;28;20481;-50
2023/07/05 18:27:01;;;;;;;11.15;8.55;;;;;;;25.47;55.98;97394.13;10328989;28;20500;-51
2023/07/05 18:32:00;;;;;;;11.25;8.88;;;;;;;25.36;56.71;97393.97;10327090;28;20013;-50
2023/07/05 18:36:59;;;;;;;12.93;9.02;;;;;;;25.25;57.37;97405.31;10328246;28;20148;-50
2023/07/05 18:41:58;;;;;;;13.20;9.45;;;;;;;25.11;58.05;97406.25;10327953;28;20104;-49
2023/07/05 18:46:57;;;;;;;10.05;8.70;;;;;;;25.02;58.53;97416.59;10328392;28;20025;-53
2023/07/05 18:51:56;;;;;;;9.73;7.97;;;;;;;24.95;59.15;97418.81;10327751;28;20104;-50
2023/07/05 18:56:55;;;;;;;9.88;8.20;;;;;;;24.86;59.36;97412.28;10328596;28;20546;-50
2023/07/05 19:01:54;;;;;;;10.73;8.50;;;;;;;24.79;59.28;97434.81;10327215;28;20037;-49
2023/07/05 19:06:53;;;;;;;12.38;9.80;;;;;;;24.75;59.89;97449.22;10327146;28;20034;-52
2023/07/05 19:11:53;;;;;;;15.95;10.60;;;;;;;24.58;62.30;97468.03;10326511;28;20041;-49
2023/07/05 19:16:52;;;;;;;11.85;9.85;;;;;;;24.43;63.67;97473.34;10326886;28;20069;-49
2023/07/05 19:21:51;;;;;;;11.25;9.35;;;;;;;24.35;63.89;97478.25;10326343;28;20037;-51
2023/07/05 19:26:50;;;;;;;11.15;9.63;;;;;;;24.16;63.96;97459.91;10326814;28;20147;-51
2023/07/05 19:31:49;;;;;;;15.25;10.65;;;;;;;24.19;65.83;97477.47;10325872;28;20036;-50
2023/07/05 19:36:49;;;;;;;14.02;11.80;;;;;;;24.11;67.84;97469.97;10325901;28;20572;-48
2023/07/05 19:41:48;;;;;;;14.70;12.00;;;;;;;24.04;69.70;97452.72;10325567;28;20423;-49
2023/07/05 19:46:47;;;;;;;17.85;12.43;;;;;;;24.00;70.99;97452.03;10326261;28;20120;-50
2023/07/05 19:51:45;;;;;;;13.77;11.23;;;;;;;23.90;71.32;97460.66;10325035;28;20104;-51
2023/07/05 19:56:44;;;;;;;13.52;11.95;;;;;;;23.84;71.87;97461.84;10325638;28;20025;-50
2023/07/05 20:01:43;;;;;;;14.68;12.20;;;;;;;23.78;72.51;97463.09;10324306;28;20018;-48
2023/07/05 20:06:42;;;;;;;15.30;12.57;;;;;;;23.74;72.76;97468.66;10324422;28;20124;-48
2023/07/05 20:11:41;;;;;;;15.15;12.13;;;;;;;23.54;74.82;97480.44;10325422;28;20101;-52
2023/07/05 20:16:40;;;;;;;15.40;12.93;;;;;;;23.34;75.33;97476.22;10322813;28;20065;-51
2023/07/05 20:21:39;;;;;;;13.07;11.68;;;;;;;23.20;76.31;97471.72;10323493;28;20041;-51
2023/07/05 20:26:39;;;;;;;13.27;11.65;;;;;;;23.07;77.16;97479.50;10324631;28;20041;-50
2023/07/05 20:31:38;;;;;;;13.75;10.80;;;;;;;22.84;77.21;97461.41;10324806;28;20132;-49
2023/07/05 20:36:37;;;;;;;13.95;11.27;;;;;;;23.02;76.91;97495.63;10324006;28;20064;-50
2023/07/05 20:41:35;;;;;;;14.10;10.18;;;;;;;22.74;77.97;97517.47;10323946;28;20032;-49
2023/07/05 20:46:34;;;;;;;12.85;10.82;;;;;;;22.45;79.33;97516.31;10324704;28;20033;-49
2023/07/05 20:51:35;;;;;;;12.73;10.27;;;;;;;22.23;80.11;97484.91;10323619;28;20040;-51
2023/07/05 20:56:34;;;;;;;14.38;11.27;;;;;;;22.37;80.90;97535.25;10329622;28;20084;-51
2023/07/05 21:01:33;;;;;;;12.93;10.10;;;;;;;22.23;82.04;97545.69;10331905;28;20030;-49
2023/07/05 21:06:33;;;;;;;11.68;8.98;;;;;;;22.22;81.39;97559.81;10332439;28;20041;-51
2023/07/05 21:11:32;;;;;;;12.52;9.45;;;;;;;22.18;81.27;97563.56;10331102;28;20078;-50
2023/07/05 21:16:31;;;;;;;13.63;9.20;;;;;;;22.25;80.63;97567.63;10331372;28;20072;-49
2023/07/05 21:21:31;;;;;;;10.88;7.80;;;;;;;22.36;80.46;97602.25;10331009;28;20059;-50
2023/07/05 21:26:30;;;;;;;11.43;6.50;;;;;;;21.64;82.57;97619.03;10331506;28;20099;-51
2023/07/05 21:31:31;;;;;;;10.18;7.15;;;;;;;21.64;82.23;97612.88;10331205;28;20477;-51
2023/07/05 21:36:33;;;;;;;8.07;6.00;;;;;;;21.69;80.26;97621.44;10331143;28;20532;-50
2023/07/05 21:41:32;;;;;;;11.43;7.95;;;;;;;21.59;85.13;97638.66;10330417;28;20112;-52
2023/07/05 21:46:31;;;;;;;11.68;7.97;;;;;;;21.09;88.64;97634.75;10330412;28;20052;-50
2023/07/05 21:51:35;;;;;;;12.80;8.43;;;;;;;20.88;89.90;97647.13;10330625;28;20052;-51
2023/07/05 21:56:34;;;;;;;12.05;8.32;;;;;;;20.92;91.19;97656.63;10329176;28;20071;-51
2023/07/05 22:01:33;;;;;;;11.68;8.63;;;;;;;20.85;92.76;97665.75;10330092;28;20022;-50
2023/07/05 22:06:32;;;;;;;10.02;7.47;;;;;;;20.92;92.10;97662.75;10329417;28;20035;-51
2023/07/05 22:11:31;;;;;;;13.43;8.63;;;;;;;20.95;91.96;97639.81;10329767;28;20069;-52
2023/07/05 22:16:32;;;;;;;11.73;8.80;;;;;;;20.93;92.30;97634.59;10331105;28;20048;-50
2023/07/05 22:21:33;;;;;;;13.70;9.73;;;;;;;20.99;92.30;97638.75;10332662;28;20073;-51
2023/07/05 22:26:32;;;;;;;12.90;8.85;;;;;;;21.04;92.33;97644.66;10331889;28;20068;-51
2023/07/05 22:31:31;;;;;;;12.75;9.75;;;;;;;21.00;92.80;97636.03;10332697;28;20041;-50
2023/07/05 22:36:33;;;;;;;11.57;9.32;;;;;;;20.93;93.07;97622.25;10332170;28;20045;-49
2023/07/05 22:41:32;;;;;;;12.82;9.85;;;;;;;20.92;93.47;97622.34;10331930;28;20130;-48
2023/07/05 22:46:32;;;;;;;14.68;9.85;;;;;;;20.88;93.38;97626.03;10331865;28;20121;-52
2023/07/05 22:51:32;;;;;;;14.32;9.60;;;;;;;20.79;93.32;97621.16;10331746;28;20065;-51